createdAt,value
2023-03-06T00:02:01.183Z,45.47
2023-03-06T00:04:27.834Z,47.07
2023-03-06T00:06:54.557Z,45.70
2023-03-06T00:09:22.352Z,46.50
2023-03-06T00:11:49.027Z,47.19
2023-03-06T00:14:15.691Z,46.70
2023-03-06T00:16:42.603Z,47.57
2023-03-06T00:19:09.254Z,48.29
2023-03-06T00:21:35.918Z,48.17
2023-03-06T00:24:02.562Z,46.85
2023-03-06T00:26:29.200Z,46.50
2023-03-06T00:28:55.906Z,46.27
2023-03-06T00:31:22.619Z,46.12
2023-03-06T00:33:49.302Z,46.33
2023-03-06T00:36:15.977Z,45.88
2023-03-06T00:38:42.608Z,45.69
2023-03-06T00:41:10.090Z,45.96
2023-03-06T00:43:36.983Z,46.17
2023-03-06T00:46:03.725Z,45.60
2023-03-06T00:48:30.356Z,45.50
2023-03-06T00:50:57.172Z,45.61
2023-03-06T00:53:23.913Z,45.18
2023-03-06T00:55:50.878Z,45.50
2023-03-06T00:58:17.639Z,45.81
2023-03-06T01:00:44.393Z,46.27
2023-03-06T01:03:11.190Z,45.10
2023-03-06T01:05:38.220Z,43.32
2023-03-06T01:08:05.308Z,43.31
2023-03-06T01:10:32.203Z,43.11
2023-03-06T01:12:58.890Z,44.58
2023-03-06T01:15:25.719Z,45.29
2023-03-06T01:17:53.383Z,45.13
2023-03-06T01:20:20.070Z,45.62
2023-03-06T01:22:46.706Z,45.50
2023-03-06T01:25:13.328Z,47.21
2023-03-06T01:27:40.120Z,47.56
2023-03-06T01:30:07.297Z,47.09
2023-03-06T01:32:33.992Z,47.10
2023-03-06T01:35:00.688Z,47.52
2023-03-06T01:37:27.322Z,47.25
2023-03-06T01:39:53.991Z,47.63
2023-03-06T01:42:20.748Z,47.43
2023-03-06T01:45:16.791Z,47.46
2023-03-06T01:47:43.498Z,46.98
2023-03-06T01:50:10.445Z,47.34
2023-03-06T01:52:42.957Z,47.28
2023-03-06T01:55:15.645Z,48.21
2023-03-06T01:57:46.916Z,47.08
2023-03-06T02:00:15.426Z,46.74
2023-03-06T02:02:43.563Z,46.89
2023-03-06T02:05:10.245Z,46.69
2023-03-06T02:07:37.200Z,47.18
2023-03-06T02:10:04.594Z,47.32
2023-03-06T02:12:31.256Z,47.29
2023-03-06T02:14:57.893Z,46.77
2023-03-06T02:17:24.639Z,47.60
2023-03-06T02:20:10.944Z,48.19
2023-03-06T02:22:46.519Z,48.38
2023-03-06T02:25:28.178Z,46.90
2023-03-06T02:27:54.860Z,46.66
2023-03-06T02:30:21.725Z,47.45
2023-03-06T02:32:48.359Z,47.33
2023-03-06T02:35:28.190Z,48.12
2023-03-06T02:37:54.839Z,48.37
2023-03-06T02:40:21.686Z,47.72
2023-03-06T02:42:49.708Z,47.70
2023-03-06T02:45:20.236Z,47.94
2023-03-06T02:47:46.854Z,48.10
2023-03-06T02:50:13.522Z,46.92
2023-03-06T02:52:40.144Z,47.59
2023-03-06T02:55:07.249Z,47.49
2023-03-06T02:57:33.882Z,47.99
2023-03-06T03:00:00.504Z,47.79
2023-03-06T03:02:27.233Z,48.01
2023-03-06T03:04:54.036Z,47.87
2023-03-06T03:07:21.847Z,46.53
2023-03-06T03:09:48.518Z,48.00
2023-03-06T03:12:15.147Z,47.24
2023-03-06T03:14:41.832Z,47.87
2023-03-06T03:17:08.443Z,46.67
2023-03-06T03:19:35.052Z,47.62
2023-03-06T03:22:01.639Z,47.51
2023-03-06T03:24:28.282Z,47.21
2023-03-06T03:26:54.932Z,47.53
2023-03-06T03:29:21.779Z,47.86
2023-03-06T03:31:48.553Z,47.78
2023-03-06T03:34:15.676Z,47.32
2023-03-06T03:36:42.386Z,46.86
2023-03-06T03:39:09.037Z,47.79
2023-03-06T03:41:35.629Z,47.86
2023-03-06T03:44:02.257Z,46.90
2023-03-06T03:46:28.969Z,47.33
2023-03-06T03:48:55.977Z,47.74
2023-03-06T03:51:22.657Z,46.81
2023-03-06T03:53:49.320Z,47.16
2023-03-06T03:56:16.097Z,47.38
2023-03-06T03:58:42.777Z,48.30
2023-03-06T04:01:09.403Z,47.28
2023-03-06T04:03:36.129Z,47.56
2023-03-06T04:06:02.862Z,48.57
2023-03-06T04:08:29.562Z,47.89
2023-03-06T04:10:56.197Z,47.87
2023-03-06T04:13:24.540Z,49.14
2023-03-06T04:15:52.087Z,49.53
2023-03-06T04:18:18.918Z,49.04
2023-03-06T04:20:45.685Z,48.38
2023-03-06T04:23:12.336Z,48.77
2023-03-06T04:25:39.014Z,49.60
2023-03-06T04:28:05.811Z,47.93
2023-03-06T04:30:32.679Z,49.06
2023-03-06T04:32:59.359Z,48.94
2023-03-06T04:35:25.986Z,47.36
2023-03-06T04:37:52.694Z,47.85
2023-03-06T04:40:21.099Z,48.63
2023-03-06T04:42:48.147Z,48.87
2023-03-06T04:45:15.253Z,48.51
2023-03-06T04:47:42.344Z,47.89
2023-03-06T04:50:09.803Z,48.23
2023-03-06T04:52:36.444Z,49.76
2023-03-06T04:55:03.408Z,48.16
2023-03-06T04:57:30.033Z,47.38
2023-03-06T04:59:56.753Z,48.07
2023-03-06T05:02:23.470Z,48.04
2023-03-06T05:04:50.138Z,47.85
2023-03-06T05:07:16.811Z,48.77
2023-03-06T05:09:43.435Z,48.81
2023-03-06T05:12:10.068Z,49.02
2023-03-06T05:14:36.684Z,49.19
2023-03-06T05:17:03.319Z,48.36
2023-03-06T05:19:30.054Z,48.26
2023-03-06T05:21:56.675Z,48.29
2023-03-06T05:24:23.309Z,49.10
2023-03-06T05:26:49.981Z,49.47
2023-03-06T05:29:16.654Z,49.51
2023-03-06T05:31:43.972Z,50.29
2023-03-06T05:34:13.468Z,49.17
2023-03-06T05:36:40.070Z,49.58
2023-03-06T05:39:07.092Z,49.06
2023-03-06T05:41:33.788Z,50.12
2023-03-06T05:44:00.377Z,50.54
2023-03-06T05:46:28.142Z,50.05
2023-03-06T05:48:54.944Z,50.47
2023-03-06T05:51:21.600Z,50.34
2023-03-06T05:53:49.613Z,50.33
2023-03-06T05:56:16.271Z,50.39
2023-03-06T05:58:42.947Z,50.41
2023-03-06T06:01:13.796Z,50.89
2023-03-06T06:03:40.603Z,49.80
2023-03-06T06:06:08.479Z,49.74
2023-03-06T06:08:35.509Z,50.90
2023-03-06T06:11:02.189Z,50.14
2023-03-06T06:13:28.798Z,51.50
2023-03-06T06:15:55.446Z,50.60
2023-03-06T06:18:22.139Z,51.16
2023-03-06T06:20:48.799Z,50.53
2023-03-06T06:23:15.483Z,50.98
2023-03-06T06:25:42.173Z,50.01
2023-03-06T06:28:08.832Z,51.86
2023-03-06T06:30:35.555Z,51.90
2023-03-06T06:33:03.203Z,52.74
2023-03-06T06:35:29.891Z,51.59
2023-03-06T06:37:56.583Z,50.47
2023-03-06T06:40:23.247Z,51.75
2023-03-06T06:42:49.972Z,51.76
2023-03-06T06:45:16.643Z,51.43
2023-03-06T06:47:43.279Z,50.10
2023-03-06T06:50:14.050Z,50.02
2023-03-06T06:52:40.740Z,51.63
2023-03-06T06:55:07.982Z,51.46
2023-03-06T06:57:34.652Z,50.68
2023-03-06T07:00:03.132Z,52.47
2023-03-06T07:02:29.804Z,51.63
2023-03-06T07:05:04.215Z,50.11
2023-03-06T07:07:34.073Z,50.54
2023-03-06T07:10:00.796Z,51.42
2023-03-06T07:12:27.443Z,51.69
2023-03-06T07:14:54.081Z,51.84
2023-03-06T07:17:20.748Z,52.45
2023-03-06T07:19:47.412Z,53.14
2023-03-06T07:22:14.085Z,52.53
2023-03-06T07:24:40.688Z,51.50
2023-03-06T07:27:08.442Z,49.26
2023-03-06T07:29:35.060Z,50.76
2023-03-06T07:32:01.757Z,49.90
2023-03-06T07:34:28.418Z,48.99
2023-03-06T07:36:55.098Z,47.18
2023-03-06T07:39:22.093Z,47.39
2023-03-06T07:41:48.714Z,46.78
2023-03-06T07:44:15.428Z,47.03
2023-03-06T07:46:42.200Z,45.86
2023-03-06T07:49:08.837Z,46.71
2023-03-06T07:51:35.802Z,46.05
2023-03-06T07:54:02.477Z,46.48
2023-03-06T07:56:29.206Z,45.65
2023-03-06T07:58:57.025Z,46.29
2023-03-06T08:01:23.751Z,46.86
2023-03-06T08:03:50.566Z,47.97
2023-03-06T08:06:21.728Z,48.32
2023-03-06T08:08:48.667Z,48.54
2023-03-06T08:11:16.194Z,49.01
2023-03-06T08:13:43.054Z,48.90
2023-03-06T08:16:10.024Z,48.35
2023-03-06T08:18:36.963Z,48.75
2023-03-06T08:21:04.939Z,48.47
2023-03-06T08:23:31.656Z,48.88
2023-03-06T08:25:59.092Z,49.75
2023-03-06T08:28:25.923Z,46.39
2023-03-06T08:30:52.587Z,46.22
2023-03-06T08:33:19.275Z,46.25
2023-03-06T08:35:45.972Z,46.15
2023-03-06T08:38:12.707Z,46.64
2023-03-06T08:40:39.337Z,46.70
2023-03-06T08:43:09.135Z,46.13
2023-03-06T08:45:35.812Z,45.22
2023-03-06T08:48:02.433Z,47.52
2023-03-06T08:50:29.377Z,47.04
2023-03-06T08:52:56.005Z,46.90
2023-03-06T08:55:22.763Z,46.60
2023-03-06T08:57:49.422Z,45.75
2023-03-06T09:00:16.850Z,45.76
2023-03-06T09:02:43.666Z,45.62
2023-03-06T09:05:10.591Z,46.25
2023-03-06T09:07:37.291Z,46.58
2023-03-06T09:10:04.114Z,46.91
2023-03-06T09:12:32.676Z,45.94
2023-03-06T09:15:04.938Z,45.74
2023-03-06T09:17:31.661Z,45.24
2023-03-06T09:19:58.378Z,44.97
2023-03-06T09:22:25.108Z,45.49
2023-03-06T09:24:51.774Z,44.90
2023-03-06T09:27:18.443Z,45.31
2023-03-06T09:29:45.112Z,45.67
2023-03-06T09:32:12.235Z,46.11
2023-03-06T09:34:38.997Z,45.69
2023-03-06T09:37:05.644Z,45.58
2023-03-06T09:39:32.338Z,46.07
2023-03-06T09:42:01.293Z,46.12
2023-03-06T09:44:32.085Z,44.50
2023-03-06T09:47:11.083Z,44.04
2023-03-06T09:49:49.649Z,44.54
2023-03-06T09:52:26.692Z,44.69
2023-03-06T09:55:14.143Z,44.20
2023-03-06T09:57:51.154Z,44.30
2023-03-06T10:00:39.767Z,45.14
2023-03-06T10:03:25.071Z,44.70
2023-03-06T10:06:02.972Z,44.59
2023-03-06T10:08:35.554Z,44.86
2023-03-06T10:11:03.774Z,45.18
2023-03-06T10:13:43.152Z,44.32
2023-03-06T10:16:27.896Z,44.58
2023-03-06T10:18:55.462Z,43.70
2023-03-06T10:21:59.212Z,45.31
2023-03-06T10:24:52.945Z,45.74
2023-03-06T10:28:12.130Z,44.47
2023-03-06T10:30:42.429Z,45.17
2023-03-06T10:33:21.237Z,44.96
2023-03-06T10:35:48.548Z,44.65
2023-03-06T10:38:22.233Z,44.84
2023-03-06T10:41:15.013Z,45.25
2023-03-06T10:43:45.885Z,45.77
2023-03-06T10:46:13.831Z,44.39
2023-03-06T10:48:42.254Z,44.71
2023-03-06T10:51:17.780Z,45.06
2023-03-06T10:53:55.091Z,45.43
2023-03-06T10:56:31.015Z,44.57
2023-03-06T10:59:19.837Z,45.23
2023-03-06T11:01:48.122Z,45.74
2023-03-06T11:04:31.608Z,44.36
2023-03-06T11:07:06.235Z,45.69
2023-03-06T11:09:33.149Z,45.13
2023-03-06T11:12:51.090Z,44.28
2023-03-06T11:15:20.160Z,43.80
2023-03-06T11:17:49.526Z,44.82
2023-03-06T11:20:24.178Z,44.42
2023-03-06T11:22:59.630Z,44.33
2023-03-06T11:25:46.031Z,42.68
2023-03-06T11:28:33.781Z,43.88
2023-03-06T11:31:06.359Z,43.42
2023-03-06T11:33:35.638Z,43.69
2023-03-06T11:36:39.723Z,44.10
2023-03-06T11:39:21.418Z,43.57
2023-03-06T11:41:56.906Z,43.37
2023-03-06T11:44:45.133Z,41.94
2023-03-06T11:47:57.139Z,41.50
2023-03-06T11:50:42.699Z,40.13
2023-03-06T11:53:33.195Z,39.83
2023-03-06T11:56:18.332Z,39.48
2023-03-06T11:59:00.649Z,41.53
2023-03-06T12:01:35.375Z,42.53
2023-03-06T12:04:20.213Z,41.69
2023-03-06T12:07:07.935Z,41.87
2023-03-06T12:09:34.510Z,41.72
2023-03-06T12:12:32.164Z,43.50
2023-03-06T12:15:04.713Z,43.41
2023-03-06T12:17:37.002Z,42.55
2023-03-06T12:20:14.150Z,43.36
2023-03-06T12:22:53.367Z,42.77
2023-03-06T12:25:31.569Z,43.14
2023-03-06T12:28:13.287Z,42.97
2023-03-06T12:31:05.629Z,43.72
2023-03-06T12:33:38.082Z,42.95
2023-03-06T12:36:29.097Z,42.50
2023-03-06T12:39:11.042Z,41.36
2023-03-06T12:41:50.289Z,42.51
2023-03-06T12:44:59.554Z,42.23
2023-03-06T12:47:27.485Z,40.41
2023-03-06T12:49:59.351Z,41.24
2023-03-06T12:52:30.509Z,41.94
2023-03-06T12:55:01.049Z,40.11
2023-03-06T12:57:27.671Z,39.10
2023-03-06T12:59:54.339Z,38.47
2023-03-06T13:02:36.092Z,37.39
2023-03-06T13:05:06.537Z,37.95
2023-03-06T13:07:35.746Z,38.16
2023-03-06T13:10:30.900Z,36.23
2023-03-06T13:13:04.127Z,38.19
2023-03-06T13:15:38.525Z,38.61
2023-03-06T13:18:37.248Z,36.86
2023-03-06T13:21:03.964Z,44.07
2023-03-06T13:23:30.472Z,39.50
2023-03-06T13:25:58.367Z,38.32
2023-03-06T13:28:25.985Z,37.99
2023-03-06T13:30:53.373Z,38.74
2023-03-06T13:33:40.151Z,38.81
2023-03-06T13:36:29.577Z,40.24
2023-03-06T13:39:23.189Z,39.26
2023-03-06T13:41:52.402Z,38.67
2023-03-06T13:44:24.821Z,38.87
2023-03-06T13:47:08.041Z,38.03
2023-03-06T13:49:34.730Z,38.48
2023-03-06T13:52:10.677Z,36.42
2023-03-06T13:54:52.700Z,36.34
2023-03-06T13:57:25.438Z,36.61
2023-03-06T14:00:13.232Z,37.99
2023-03-06T14:02:47.242Z,36.92
2023-03-06T14:05:14.583Z,36.11
2023-03-06T14:07:48.007Z,35.08
2023-03-06T14:10:14.566Z,36.36
2023-03-06T14:12:43.036Z,37.23
2023-03-06T14:15:16.538Z,37.41
2023-03-06T14:17:52.907Z,37.11
2023-03-06T14:20:19.888Z,37.87
2023-03-06T14:22:46.623Z,39.62
2023-03-06T14:25:20.671Z,37.62
2023-03-06T14:27:48.983Z,39.32
2023-03-06T14:30:19.984Z,40.34
2023-03-06T14:32:47.090Z,39.67
2023-03-06T14:35:28.383Z,41.39
2023-03-06T14:38:00.733Z,41.78
2023-03-06T14:40:40.889Z,40.84
2023-03-06T14:43:12.283Z,38.30
2023-03-06T14:45:51.325Z,37.00
2023-03-06T14:48:18.137Z,34.69
2023-03-06T14:50:51.921Z,37.04
2023-03-06T14:53:19.447Z,36.54
2023-03-06T14:55:53.957Z,31.84
2023-03-06T14:58:25.917Z,34.16
2023-03-06T15:00:52.859Z,34.21
2023-03-06T15:03:46.409Z,31.27
2023-03-06T15:06:20.785Z,26.70
2023-03-06T15:08:48.697Z,26.26
2023-03-06T15:11:15.352Z,27.62
2023-03-06T15:13:41.982Z,26.75
2023-03-06T15:16:23.650Z,26.96
2023-03-06T15:19:00.804Z,24.85
2023-03-06T15:21:35.301Z,26.26
2023-03-06T15:24:01.902Z,30.78
2023-03-06T15:26:38.366Z,28.50
2023-03-06T15:29:11.101Z,28.72
2023-03-06T15:31:39.071Z,29.58
2023-03-06T15:34:08.346Z,30.23
2023-03-06T15:36:56.044Z,27.69
2023-03-06T15:39:31.519Z,26.20
2023-03-06T15:42:20.080Z,25.00
2023-03-06T15:44:51.021Z,24.33
2023-03-06T15:47:17.626Z,23.31
2023-03-06T15:49:44.420Z,21.46
2023-03-06T15:52:11.240Z,30.66
2023-03-06T15:54:38.224Z,33.31
2023-03-06T15:57:05.807Z,29.07
2023-03-06T15:59:32.453Z,31.54
2023-03-06T16:02:02.958Z,31.70
2023-03-06T16:04:30.387Z,28.07
2023-03-06T16:06:57.036Z,24.12
2023-03-06T16:09:23.673Z,20.49
2023-03-06T16:11:50.282Z,19.79
2023-03-06T16:14:22.846Z,22.76
2023-03-06T16:16:50.704Z,26.21
2023-03-06T16:19:27.752Z,25.59
2023-03-06T16:21:55.580Z,25.16
2023-03-06T16:24:22.261Z,22.83
2023-03-06T16:26:49.981Z,20.35
2023-03-06T16:29:20.824Z,21.05
2023-03-06T16:31:47.581Z,20.17
2023-03-06T16:34:14.496Z,18.40
2023-03-06T16:36:41.212Z,18.08
2023-03-06T16:39:13.123Z,17.92
2023-03-06T16:41:39.775Z,17.60
2023-03-06T16:44:06.423Z,17.40
2023-03-06T16:46:33.136Z,16.60
2023-03-06T16:48:59.766Z,16.51
2023-03-06T16:51:26.466Z,16.47
2023-03-06T16:53:53.237Z,17.63
2023-03-06T16:56:20.102Z,18.20
2023-03-06T16:58:47.041Z,24.07
2023-03-06T17:01:17.621Z,27.42
2023-03-06T17:03:45.078Z,28.14
2023-03-06T17:06:21.324Z,25.56
2023-03-06T17:08:48.085Z,22.71
2023-03-06T17:11:14.799Z,22.14
2023-03-06T17:13:41.457Z,20.01
2023-03-06T17:16:08.911Z,18.26
2023-03-06T17:18:35.598Z,14.51
2023-03-06T17:21:02.292Z,12.54
2023-03-06T17:23:29.060Z,12.46
2023-03-06T17:26:09.718Z,13.03
2023-03-06T17:28:36.726Z,12.85
2023-03-06T17:31:10.881Z,12.66
2023-03-06T17:33:37.611Z,12.79
2023-03-06T17:36:04.470Z,13.06
2023-03-06T17:38:31.180Z,13.53
2023-03-06T17:41:02.380Z,13.42
2023-03-06T17:43:29.029Z,13.47
2023-03-06T17:45:55.665Z,12.51
2023-03-06T17:48:22.295Z,12.62
2023-03-06T17:50:57.978Z,12.73
2023-03-06T17:53:24.609Z,11.98
2023-03-06T17:55:51.256Z,12.94
2023-03-06T17:58:17.910Z,13.14
2023-03-06T18:00:44.554Z,13.46
2023-03-06T18:03:11.275Z,13.47
2023-03-06T18:05:37.991Z,12.76
2023-03-06T18:08:05.263Z,13.18
2023-03-06T18:10:31.900Z,13.51
2023-03-06T18:12:58.581Z,14.28
2023-03-06T18:15:25.299Z,14.09
2023-03-06T18:17:51.982Z,13.66
2023-03-06T18:20:20.953Z,13.51
2023-03-06T18:22:47.662Z,13.12
2023-03-06T18:25:14.261Z,13.07
2023-03-06T18:27:40.896Z,13.64
2023-03-06T18:30:08.112Z,12.64
2023-03-06T18:32:35.136Z,12.24
2023-03-06T18:35:01.851Z,11.86
2023-03-06T18:37:28.474Z,11.43
2023-03-06T18:39:55.061Z,10.88
2023-03-06T18:42:21.659Z,11.34
2023-03-06T18:44:48.280Z,11.33
2023-03-06T18:47:15.212Z,13.42
2023-03-06T18:49:44.119Z,13.52
2023-03-06T18:52:11.223Z,17.68
2023-03-06T18:54:37.960Z,12.10
2023-03-06T18:57:04.652Z,12.28
2023-03-06T18:59:31.290Z,12.91
2023-03-06T19:01:57.976Z,13.38
2023-03-06T19:04:25.510Z,13.27
2023-03-06T19:06:52.146Z,12.66
2023-03-06T19:09:18.835Z,12.65
2023-03-06T19:11:45.481Z,12.96
2023-03-06T19:14:12.582Z,12.97
2023-03-06T19:16:39.299Z,13.14
2023-03-06T19:19:06.002Z,13.25
2023-03-06T19:21:32.685Z,13.18
2023-03-06T19:23:59.416Z,13.01
2023-03-06T19:26:26.142Z,13.04
2023-03-06T19:28:53.989Z,12.90
2023-03-06T19:31:22.268Z,14.78
2023-03-06T19:33:49.234Z,13.16
2023-03-06T19:36:16.451Z,12.91
2023-03-06T19:38:43.215Z,13.61
2023-03-06T19:41:12.920Z,13.31
2023-03-06T19:43:42.703Z,13.82
2023-03-06T19:46:13.095Z,14.13
2023-03-06T19:48:40.856Z,14.51
2023-03-06T19:51:07.589Z,14.78
2023-03-06T19:53:34.503Z,14.95
2023-03-06T19:56:08.643Z,14.76
2023-03-06T19:58:35.246Z,14.33
2023-03-06T20:01:13.884Z,14.94
2023-03-06T20:03:40.636Z,14.55
2023-03-06T20:06:07.525Z,15.05
2023-03-06T20:08:34.778Z,16.56
2023-03-06T20:11:01.429Z,14.89
2023-03-06T20:13:28.056Z,15.03
2023-03-06T20:15:54.757Z,15.21
2023-03-06T20:18:21.458Z,15.86
2023-03-06T20:21:00.664Z,15.48
2023-03-06T20:23:27.488Z,15.30
2023-03-06T20:25:54.098Z,15.08
2023-03-06T20:28:21.181Z,15.40
2023-03-06T20:30:47.971Z,15.43
2023-03-06T20:33:14.589Z,15.93
2023-03-06T20:35:41.871Z,16.20
2023-03-06T20:38:09.059Z,16.05
2023-03-06T20:40:39.497Z,16.10
2023-03-06T20:43:06.282Z,16.17
2023-03-06T20:45:33.036Z,16.21
2023-03-06T20:47:59.677Z,16.70
2023-03-06T20:50:26.360Z,16.44
2023-03-06T20:52:54.449Z,16.05
2023-03-06T20:55:21.129Z,16.45
2023-03-06T20:57:51.360Z,16.73
2023-03-06T21:00:18.734Z,15.86
2023-03-06T21:02:45.489Z,15.62
2023-03-06T21:05:12.323Z,16.44
2023-03-06T21:07:39.931Z,16.70
2023-03-06T21:10:07.287Z,16.29
2023-03-06T21:12:33.928Z,16.88
2023-03-06T21:15:00.541Z,22.99
2023-03-06T21:17:27.466Z,34.64
2023-03-06T21:19:54.125Z,42.53
2023-03-06T21:22:20.741Z,18.67
2023-03-06T21:24:47.375Z,17.57
2023-03-06T21:27:14.110Z,22.62
2023-03-06T21:29:40.872Z,25.50
2023-03-06T21:32:07.778Z,36.76
2023-03-06T21:34:34.433Z,21.48
2023-03-06T21:37:01.111Z,17.48
2023-03-06T21:39:27.880Z,23.35
2023-03-06T21:41:54.572Z,22.39
2023-03-06T21:44:21.234Z,19.23
2023-03-06T21:46:47.883Z,16.83
2023-03-06T21:49:17.490Z,18.51
2023-03-06T21:51:44.243Z,17.13
2023-03-06T21:54:10.883Z,18.44
2023-03-06T21:56:37.561Z,17.02
2023-03-06T21:59:04.264Z,16.54
2023-03-06T22:01:30.938Z,15.30
2023-03-06T22:03:57.688Z,15.77
2023-03-06T22:06:25.532Z,16.17
2023-03-06T22:08:52.366Z,15.97
2023-03-06T22:11:20.193Z,15.84
2023-03-06T22:13:46.893Z,15.56
2023-03-06T22:16:13.822Z,16.12
2023-03-06T22:18:43.533Z,16.36
2023-03-06T22:21:10.860Z,16.12
2023-03-06T22:23:37.629Z,16.42
2023-03-06T22:26:05.078Z,16.64
2023-03-06T22:28:32.375Z,16.42
2023-03-06T22:31:09.822Z,15.89
2023-03-06T22:33:36.581Z,16.53
2023-03-06T22:36:04.624Z,16.20
2023-03-06T22:38:32.155Z,17.12
2023-03-06T22:40:58.882Z,16.35
2023-03-06T22:43:25.545Z,16.59
2023-03-06T22:45:52.272Z,17.16
2023-03-06T22:48:19.778Z,16.57
2023-03-06T22:50:46.568Z,16.71
2023-03-06T22:53:13.208Z,16.34
2023-03-06T22:55:39.841Z,16.70
2023-03-06T22:58:06.533Z,16.63
2023-03-06T23:00:33.242Z,16.69
2023-03-06T23:02:59.937Z,16.37
2023-03-06T23:05:29.164Z,17.14
2023-03-06T23:07:56.169Z,16.95
2023-03-06T23:10:22.830Z,16.86
2023-03-06T23:12:49.685Z,17.01
2023-03-06T23:15:16.443Z,17.25
2023-03-06T23:17:43.121Z,17.27
2023-03-06T23:20:10.561Z,16.76
2023-03-06T23:22:37.218Z,16.74
2023-03-06T23:25:04.008Z,17.01
2023-03-06T23:27:30.646Z,17.02
2023-03-06T23:29:57.317Z,20.31
2023-03-06T23:32:24.061Z,27.82
2023-03-06T23:34:50.973Z,27.17
2023-03-06T23:37:17.690Z,16.62
2023-03-06T23:39:44.369Z,15.57
2023-03-06T23:42:11.028Z,15.17
2023-03-06T23:44:37.656Z,15.20
2023-03-06T23:47:04.479Z,14.92
2023-03-06T23:49:31.165Z,15.02
2023-03-06T23:51:57.836Z,14.77
2023-03-06T23:54:24.474Z,14.94
2023-03-06T23:56:51.074Z,15.32
2023-03-06T23:59:17.726Z,15.15
